createdAt,value
2019-03-11T11:40:35.894Z,8.92
2019-03-11T11:43:05.387Z,9.41
2019-03-11T11:45:34.801Z,9.67
2019-03-11T11:48:04.159Z,9.71
2019-03-11T11:50:33.876Z,9.79
2019-03-11T11:53:03.281Z,9.84
2019-03-11T11:55:32.742Z,9.54
2019-03-11T11:58:02.185Z,9.67
2019-03-11T12:00:51.698Z,9.87
2019-03-11T12:03:22.245Z,9.54
2019-03-11T12:05:51.937Z,9.27
2019-03-11T12:08:21.445Z,9.07
2019-03-11T12:10:51.284Z,8.72
2019-03-11T12:13:21.000Z,8.60
2019-03-11T12:15:50.461Z,8.55
2019-03-11T12:18:20.077Z,8.31
2019-03-11T12:20:49.423Z,8.27
2019-03-11T12:23:18.843Z,8.17
2019-03-11T12:25:49.211Z,8.29
2019-03-11T12:28:18.951Z,8.31
2019-03-11T12:30:48.633Z,7.99
2019-03-11T12:33:20.297Z,7.94
2019-03-11T12:35:49.319Z,7.90
2019-03-11T12:38:18.686Z,7.93
2019-03-11T12:40:48.117Z,8.22
2019-03-11T12:43:17.727Z,8.36
2019-03-11T12:45:47.241Z,8.01
2019-03-11T12:48:16.649Z,7.95
2019-03-11T12:50:46.037Z,7.76
2019-03-11T12:53:15.400Z,7.74
2019-03-11T12:55:45.086Z,7.54
2019-03-11T12:58:14.666Z,7.87
2019-03-11T13:00:44.369Z,8.06
2019-03-11T13:03:14.115Z,8.21
2019-03-11T13:05:43.495Z,8.61
2019-03-11T13:08:13.083Z,8.64
2019-03-11T13:10:42.498Z,8.79
2019-03-11T13:13:12.048Z,8.73
2019-03-11T13:15:41.443Z,8.71
2019-03-11T13:18:28.766Z,8.55
2019-03-11T13:20:59.669Z,8.42
2019-03-11T13:23:28.991Z,8.36
2019-03-11T13:25:58.376Z,8.44
2019-03-11T13:28:27.840Z,8.46
2019-03-11T13:30:57.430Z,8.24
2019-03-11T13:33:26.838Z,7.98
2019-03-11T13:35:56.798Z,7.81
2019-03-11T13:38:26.475Z,7.51
2019-03-11T13:40:56.227Z,7.48
2019-03-11T13:43:25.662Z,7.19
2019-03-11T13:45:55.035Z,6.97
2019-03-11T13:48:24.403Z,7.19
2019-03-11T13:50:54.156Z,7.48
2019-03-11T13:53:23.552Z,7.66
2019-03-11T13:55:53.061Z,7.82
2019-03-11T13:58:22.440Z,7.95
2019-03-11T14:00:56.696Z,8.17
2019-03-11T14:03:23.871Z,8.19
2019-03-11T14:05:53.378Z,8.21
2019-03-11T14:08:22.759Z,8.07
2019-03-11T14:10:52.121Z,8.06
2019-03-11T14:13:21.848Z,8.09
2019-03-11T14:15:51.244Z,8.27
2019-03-11T14:18:20.607Z,8.52
2019-03-11T14:20:49.995Z,8.32
2019-03-11T14:23:19.401Z,8.26
2019-03-11T14:25:48.878Z,8.47
2019-03-11T14:28:18.470Z,8.55
2019-03-11T14:30:47.872Z,8.61
2019-03-11T14:33:17.290Z,8.49
2019-03-11T14:35:46.584Z,8.29
2019-03-11T14:38:16.080Z,8.17
2019-03-11T14:40:45.439Z,7.97
2019-03-11T14:43:14.982Z,7.89
2019-03-11T14:45:44.361Z,7.75
2019-03-11T14:48:13.862Z,7.71
2019-03-11T14:50:43.225Z,7.62
2019-03-11T14:53:12.602Z,7.43
2019-03-11T14:55:41.995Z,7.44
2019-03-11T14:58:11.725Z,7.45
2019-03-11T15:00:41.088Z,7.33
2019-03-11T15:03:10.820Z,7.32
2019-03-11T15:05:40.492Z,7.29
2019-03-11T15:08:12.602Z,7.29
2019-03-11T15:10:41.206Z,7.35
2019-03-11T15:13:10.633Z,7.45
2019-03-11T15:15:39.980Z,7.50
2019-03-11T15:18:09.337Z,7.61
2019-03-11T15:20:39.039Z,7.61
2019-03-11T15:23:20.010Z,7.55
2019-03-11T15:25:39.699Z,7.50
2019-03-11T15:28:09.056Z,7.45
2019-03-11T15:30:38.424Z,7.59
2019-03-11T15:33:08.759Z,7.61
2019-03-11T15:35:38.135Z,7.59
2019-03-11T15:38:07.846Z,7.74
2019-03-11T15:40:37.323Z,7.88
2019-03-11T15:43:06.868Z,7.89
2019-03-11T15:45:38.941Z,7.91
2019-03-11T15:48:07.313Z,7.91
2019-03-11T15:50:37.129Z,7.74
2019-03-11T15:53:06.507Z,7.69
2019-03-11T15:55:35.865Z,7.57
2019-03-11T15:58:05.792Z,7.49
2019-03-11T16:00:36.626Z,7.47
2019-03-11T16:03:06.385Z,7.52
2019-03-11T16:05:35.729Z,7.44
2019-03-11T16:08:05.500Z,7.45
2019-03-11T16:10:34.875Z,7.51
2019-03-11T16:13:04.684Z,7.51
2019-03-11T16:15:34.510Z,7.43
2019-03-11T16:18:04.025Z,7.49
2019-03-11T16:20:33.475Z,7.41
2019-03-11T16:23:02.904Z,7.41
2019-03-11T16:25:32.361Z,7.36
2019-03-11T16:28:01.763Z,7.29
2019-03-11T16:30:31.523Z,7.26
2019-03-11T16:33:01.411Z,7.13
2019-03-11T16:35:30.874Z,7.12
2019-03-11T16:38:00.354Z,7.08
2019-03-11T16:40:30.090Z,7.10
2019-03-11T16:42:59.542Z,7.04
2019-03-11T16:45:29.444Z,6.99
2019-03-11T16:47:58.761Z,6.91
2019-03-11T16:50:28.204Z,6.86
2019-03-11T16:52:57.624Z,6.80
2019-03-11T16:55:28.642Z,6.86
2019-03-11T16:58:00.641Z,6.85
2019-03-11T17:00:34.564Z,6.70
2019-03-11T17:03:03.989Z,6.56
2019-03-11T17:05:33.500Z,6.36
2019-03-11T17:08:03.468Z,6.24
2019-03-11T17:10:33.013Z,6.25
2019-03-11T17:13:02.487Z,6.17
2019-03-11T17:15:31.881Z,6.12
2019-03-11T17:18:01.293Z,6.02
2019-03-11T17:20:31.690Z,5.66
2019-03-11T17:23:01.041Z,5.72
2019-03-11T17:25:30.374Z,5.79
2019-03-11T17:27:59.736Z,5.75
2019-03-11T17:30:29.363Z,5.66
2019-03-11T17:32:59.666Z,5.59
2019-03-11T17:35:29.293Z,5.57
2019-03-11T17:37:58.622Z,5.57
2019-03-11T17:40:28.086Z,5.60
2019-03-11T17:42:57.487Z,5.60
2019-03-11T17:45:26.810Z,5.61
2019-03-11T17:47:56.416Z,5.62
2019-03-11T17:50:25.778Z,5.56
2019-03-11T17:52:55.182Z,5.53
2019-03-11T17:55:24.511Z,5.57
2019-03-11T17:57:53.937Z,5.55
2019-03-11T18:00:29.074Z,5.46
2019-03-11T18:02:58.687Z,5.46
2019-03-11T18:05:28.417Z,5.47
2019-03-11T18:07:57.756Z,5.48
2019-03-11T18:10:27.148Z,5.49
2019-03-11T18:12:56.561Z,5.51
2019-03-11T18:15:25.981Z,5.58
2019-03-11T18:17:55.332Z,5.59
2019-03-11T18:20:24.693Z,5.61
2019-03-11T18:22:54.430Z,5.64
2019-03-11T18:25:24.533Z,5.66
2019-03-11T18:27:53.885Z,5.63
2019-03-11T18:30:30.375Z,5.65
2019-03-11T18:32:59.949Z,5.76
2019-03-11T18:35:30.308Z,5.73
2019-03-11T18:38:04.426Z,5.77
2019-03-11T18:40:30.784Z,5.57
2019-03-11T18:43:00.117Z,5.28
2019-03-11T18:45:29.766Z,5.31
2019-03-11T18:47:59.111Z,5.37
2019-03-11T18:50:28.492Z,5.21
2019-03-11T18:52:57.833Z,5.22
2019-03-11T18:55:27.154Z,5.14
2019-03-11T18:57:56.511Z,5.13
2019-03-11T19:00:26.174Z,5.21
2019-03-11T19:02:55.566Z,5.05
2019-03-11T19:05:25.559Z,5.06
2019-03-11T19:07:55.503Z,5.00
2019-03-11T19:10:25.859Z,4.96
2019-03-11T19:12:55.553Z,4.88
2019-03-11T19:15:26.322Z,4.83
2019-03-11T19:17:55.790Z,4.91
2019-03-11T19:20:26.544Z,4.86
2019-03-11T19:22:55.853Z,4.86
2019-03-11T19:25:25.234Z,4.96
2019-03-11T19:27:54.624Z,4.97
2019-03-11T19:30:28.447Z,4.99
2019-03-11T19:32:57.934Z,5.03
2019-03-11T19:35:27.262Z,5.08
2019-03-11T19:37:56.605Z,5.14
2019-03-11T19:40:27.107Z,5.13
2019-03-11T19:42:56.404Z,5.12
2019-03-11T19:45:25.751Z,5.16
2019-03-11T19:47:55.428Z,5.22
2019-03-11T19:50:24.721Z,5.19
2019-03-11T19:52:59.209Z,5.18
2019-03-11T19:55:25.069Z,5.24
2019-03-11T19:57:54.759Z,5.21
2019-03-11T20:00:25.096Z,5.23
2019-03-11T20:02:54.752Z,5.15
2019-03-11T20:05:26.505Z,5.16
2019-03-11T20:07:55.986Z,5.17
2019-03-11T20:10:25.590Z,5.21
2019-03-11T20:12:54.973Z,5.19
2019-03-11T20:15:24.271Z,5.23
2019-03-11T20:17:53.892Z,5.20
2019-03-11T20:20:23.273Z,5.23
2019-03-11T20:22:52.861Z,5.24
2019-03-11T20:25:31.152Z,5.23
2019-03-11T20:28:00.539Z,5.20
2019-03-11T20:30:30.070Z,5.20
2019-03-11T20:33:03.737Z,5.17
2019-03-11T20:35:32.858Z,5.16
2019-03-11T20:38:02.505Z,5.13
2019-03-11T20:40:31.826Z,5.11
2019-03-11T20:43:01.145Z,5.08
2019-03-11T20:45:30.528Z,5.06
2019-03-11T20:47:59.874Z,5.03
2019-03-11T20:50:41.535Z,5.00
2019-03-11T20:53:01.591Z,4.98
2019-03-11T20:58:33.356Z,4.99
2019-03-11T21:01:02.703Z,4.97
2019-03-11T21:03:32.177Z,4.91
2019-03-11T21:06:04.993Z,4.89
2019-03-11T21:08:34.476Z,4.82
2019-03-11T21:11:04.738Z,4.81
2019-03-11T21:13:34.035Z,4.80
2019-03-11T21:16:03.620Z,4.74
2019-03-11T21:18:33.065Z,4.65
2019-03-11T21:21:05.092Z,4.62
2019-03-11T21:23:33.436Z,4.64
2019-03-11T21:26:02.781Z,4.61
2019-03-11T21:28:32.181Z,4.63
2019-03-11T21:31:01.600Z,4.56
2019-03-11T21:33:31.126Z,4.49
2019-03-11T21:36:00.440Z,4.46
2019-03-11T21:38:29.856Z,4.40
2019-03-11T21:40:59.313Z,4.37
2019-03-11T21:43:28.706Z,4.33
2019-03-11T21:45:58.073Z,4.31
2019-03-11T21:48:28.369Z,4.29
2019-03-11T21:50:57.932Z,4.31
2019-03-11T21:53:27.411Z,4.23
2019-03-11T21:55:56.829Z,4.17
2019-03-11T21:58:26.270Z,4.15
2019-03-11T22:00:55.605Z,4.13
2019-03-11T22:03:24.972Z,4.04
2019-03-11T22:05:54.321Z,4.02
2019-03-11T22:08:23.654Z,4.01
2019-03-11T22:10:53.154Z,4.00
2019-03-11T22:13:22.483Z,3.97
2019-03-11T22:15:51.836Z,4.01
2019-03-11T22:18:21.197Z,3.98
2019-03-11T22:20:50.777Z,3.93
2019-03-11T22:23:20.110Z,3.89
2019-03-11T22:25:49.736Z,3.92
2019-03-11T22:28:19.341Z,3.89
2019-03-11T22:30:48.677Z,3.89
2019-03-11T22:33:18.042Z,3.79
2019-03-11T22:35:47.671Z,3.72
2019-03-11T22:38:17.028Z,3.69
2019-03-11T22:40:46.353Z,3.66
2019-03-11T22:43:15.716Z,3.64
2019-03-11T22:45:45.042Z,3.66
2019-03-11T22:48:14.501Z,3.63
2019-03-11T22:50:43.826Z,3.59
2019-03-11T22:53:13.155Z,3.55
2019-03-11T22:55:42.720Z,3.44
2019-03-11T22:58:12.427Z,3.41
2019-03-11T23:00:58.534Z,3.34
2019-03-11T23:03:28.421Z,3.30
2019-03-11T23:05:58.684Z,3.28
2019-03-11T23:08:28.171Z,3.23
2019-03-11T23:10:57.504Z,3.21
2019-03-11T23:13:26.834Z,3.16
2019-03-11T23:15:56.526Z,3.19
2019-03-11T23:18:25.893Z,3.16
2019-03-11T23:20:55.217Z,3.16
2019-03-11T23:23:24.845Z,3.07
2019-03-11T23:25:54.180Z,3.02
2019-03-11T23:28:23.515Z,3.02
2019-03-11T23:30:52.849Z,3.00
2019-03-11T23:33:22.185Z,2.96
2019-03-11T23:35:51.536Z,2.91
2019-03-11T23:38:20.866Z,2.86
2019-03-11T23:40:50.225Z,2.81
2019-03-11T23:43:19.530Z,2.81
2019-03-11T23:45:49.167Z,2.78
2019-03-11T23:48:18.500Z,2.76
2019-03-11T23:50:48.165Z,2.66
2019-03-11T23:53:17.490Z,2.63
2019-03-11T23:55:46.821Z,2.54
2019-03-11T23:58:16.973Z,2.53
